createdAt,value
2017-12-13T00:03:13.200Z,1006.36
2017-12-13T00:08:09.617Z,1006.22
2017-12-13T00:13:06.091Z,1006.20
2017-12-13T00:18:02.327Z,1006.20
2017-12-13T00:22:58.121Z,1006.24
2017-12-13T00:27:55.040Z,1006.07
2017-12-13T00:32:52.305Z,1006.11
2017-12-13T00:37:47.382Z,1006.04
2017-12-13T00:42:42.955Z,1005.97
2017-12-13T00:47:38.522Z,1005.84
2017-12-13T00:52:35.268Z,1005.80
2017-12-13T00:57:30.629Z,1005.83
2017-12-13T01:02:27.249Z,1005.76
2017-12-13T01:07:23.834Z,1005.74
2017-12-13T01:12:19.564Z,1005.66
2017-12-13T01:17:15.147Z,1005.66
2017-12-13T01:22:11.841Z,1005.47
2017-12-13T01:27:08.364Z,1005.50
2017-12-13T01:32:03.594Z,1005.56
2017-12-13T01:36:59.371Z,1005.55
2017-12-13T01:41:54.750Z,1005.49
2017-12-13T01:46:50.662Z,1005.53
2017-12-13T01:51:46.266Z,1005.51
2017-12-13T01:56:41.916Z,1005.48
2017-12-13T02:01:38.425Z,1005.38
2017-12-13T02:06:33.546Z,1005.27
2017-12-13T02:11:31.384Z,1005.09
2017-12-13T02:16:26.450Z,1005.04
2017-12-13T02:21:22.176Z,1004.92
2017-12-13T02:26:17.963Z,1004.85
2017-12-13T02:31:13.350Z,1004.82
2017-12-13T02:36:10.794Z,1004.72
2017-12-13T02:41:05.970Z,1004.70
2017-12-13T02:46:02.844Z,1004.65
2017-12-13T02:50:58.091Z,1004.55
2017-12-13T02:55:54.726Z,1004.42
2017-12-13T03:00:50.276Z,1004.38
2017-12-13T03:05:46.753Z,1004.27
2017-12-13T03:10:43.436Z,1004.26
2017-12-13T03:15:39.557Z,1004.15
2017-12-13T03:20:35.004Z,1004.14
2017-12-13T03:25:30.887Z,1004.08
2017-12-13T03:30:26.501Z,1003.96
2017-12-13T03:35:23.289Z,1003.91
2017-12-13T03:40:19.600Z,1003.86
2017-12-13T03:45:14.889Z,1003.80
2017-12-13T03:50:10.498Z,1003.59
2017-12-13T03:55:07.016Z,1003.51
2017-12-13T04:00:02.475Z,1003.52
2017-12-13T04:04:58.996Z,1003.47
2017-12-13T04:09:53.945Z,1003.39
2017-12-13T04:14:50.512Z,1003.35
2017-12-13T04:19:45.878Z,1003.38
2017-12-13T04:24:42.583Z,1003.24
2017-12-13T04:29:38.730Z,1003.18
2017-12-13T04:34:34.387Z,1003.13
2017-12-13T04:39:31.083Z,1002.92
2017-12-13T04:44:26.232Z,1002.84
2017-12-13T04:49:22.825Z,1002.70
2017-12-13T04:54:18.508Z,1002.69
2017-12-13T04:59:15.766Z,1002.54
2017-12-13T05:04:11.913Z,1002.42
2017-12-13T05:09:07.507Z,1002.38
2017-12-13T05:14:03.948Z,1002.36
2017-12-13T05:18:59.532Z,1002.32
2017-12-13T05:23:55.221Z,1002.27
2017-12-13T05:28:50.743Z,1002.07
2017-12-13T05:33:47.508Z,1001.93
2017-12-13T05:38:42.811Z,1001.80
2017-12-13T05:43:39.647Z,1001.75
2017-12-13T05:48:35.007Z,1001.73
2017-12-13T05:53:30.573Z,1001.75
2017-12-13T05:58:26.863Z,1001.74
2017-12-13T06:03:23.246Z,1001.64
2017-12-13T06:08:20.460Z,1001.44
2017-12-13T06:13:15.836Z,1001.25
2017-12-13T06:18:13.651Z,1001.25
2017-12-13T06:23:09.816Z,1001.14
2017-12-13T06:28:04.798Z,1000.95
2017-12-13T06:33:00.867Z,1000.92
2017-12-13T06:37:56.469Z,1000.77
2017-12-13T06:42:52.152Z,1000.72
2017-12-13T06:47:47.829Z,1000.71
2017-12-13T06:52:44.268Z,1000.54
2017-12-13T06:57:40.282Z,1000.56
2017-12-13T07:02:37.013Z,1000.35
2017-12-13T07:07:32.405Z,1000.25
2017-12-13T07:12:28.159Z,1000.14
2017-12-13T07:17:24.098Z,1000.06
2017-12-13T07:22:20.729Z,1000.00
2017-12-13T07:27:16.434Z,999.94
2017-12-13T07:32:12.125Z,999.91
2017-12-13T07:37:07.880Z,999.78
2017-12-13T07:42:03.775Z,999.77
2017-12-13T07:46:59.617Z,999.57
2017-12-13T07:51:56.151Z,999.47
2017-12-13T07:56:51.825Z,999.32
2017-12-13T08:01:49.489Z,999.30
2017-12-13T08:06:45.723Z,999.26
2017-12-13T08:11:41.678Z,999.18
2017-12-13T08:16:37.542Z,998.96
2017-12-13T08:21:34.251Z,998.96
2017-12-13T08:26:29.707Z,998.80
2017-12-13T08:31:25.487Z,998.77
2017-12-13T08:36:21.161Z,998.63
2017-12-13T08:41:16.981Z,998.44
2017-12-13T08:46:12.595Z,998.34
2017-12-13T08:51:08.210Z,998.11
2017-12-13T08:56:03.982Z,998.13
2017-12-13T09:01:00.732Z,998.05
2017-12-13T09:05:56.348Z,997.97
2017-12-13T09:10:53.161Z,997.87
2017-12-13T09:15:49.007Z,997.82
2017-12-13T09:20:44.909Z,997.72
2017-12-13T09:25:41.276Z,997.47
2017-12-13T09:30:38.686Z,997.38
2017-12-13T09:35:35.439Z,997.26
2017-12-13T09:40:31.808Z,997.16
2017-12-13T09:45:27.092Z,997.03
2017-12-13T09:50:22.686Z,996.92
2017-12-13T09:55:19.061Z,996.71
2017-12-13T10:00:14.992Z,996.54
2017-12-13T10:05:11.058Z,996.46
2017-12-13T10:10:06.679Z,996.39
2017-12-13T10:15:02.465Z,996.13
2017-12-13T10:19:58.124Z,996.00
2017-12-13T10:24:53.782Z,995.87
2017-12-13T10:29:50.508Z,995.66
2017-12-13T10:34:45.768Z,995.59
2017-12-13T10:39:41.451Z,995.45
2017-12-13T10:44:37.326Z,995.29
2017-12-13T10:49:33.714Z,995.19
2017-12-13T10:54:29.634Z,994.95
2017-12-13T10:59:25.235Z,994.77
2017-12-13T11:04:20.899Z,994.58
2017-12-13T11:09:16.414Z,994.47
2017-12-13T11:14:11.874Z,994.32
2017-12-13T11:19:08.228Z,994.18
2017-12-13T11:24:03.935Z,994.16
2017-12-13T11:29:01.629Z,993.86
2017-12-13T11:33:57.825Z,993.72
2017-12-13T11:38:55.152Z,993.69
2017-12-13T11:43:50.496Z,993.44
2017-12-13T11:48:46.051Z,993.21
2017-12-13T11:53:41.914Z,993.18
2017-12-13T11:58:38.721Z,993.08
2017-12-13T12:03:34.857Z,992.78
2017-12-13T12:08:30.626Z,992.69
2017-12-13T12:13:26.198Z,992.63
2017-12-13T12:18:21.988Z,992.35
2017-12-13T12:23:17.576Z,992.27
2017-12-13T12:28:13.374Z,992.07
2017-12-13T12:33:09.354Z,992.01
2017-12-13T12:38:06.086Z,991.74
2017-12-13T12:43:01.435Z,991.72
2017-12-13T12:47:59.196Z,991.47
2017-12-13T12:52:54.352Z,991.58
2017-12-13T12:57:50.148Z,991.49
2017-12-13T13:02:46.189Z,991.26
2017-12-13T13:07:42.623Z,991.27
2017-12-13T13:12:39.033Z,991.07
2017-12-13T13:17:35.684Z,991.07
2017-12-13T13:22:31.017Z,991.01
2017-12-13T13:27:26.210Z,990.97
2017-12-13T13:32:21.864Z,990.79
2017-12-13T13:37:18.406Z,990.71
2017-12-13T13:42:13.633Z,990.49
2017-12-13T13:47:10.524Z,990.45
2017-12-13T13:52:05.913Z,990.30
2017-12-13T13:57:01.648Z,990.36
2017-12-13T14:01:57.365Z,990.15
2017-12-13T14:06:53.162Z,990.15
2017-12-13T14:11:50.782Z,990.06
2017-12-13T14:16:47.542Z,990.01
2017-12-13T14:21:44.239Z,990.05
2017-12-13T14:26:40.797Z,989.93
2017-12-13T14:31:36.251Z,989.87
2017-12-13T14:36:31.952Z,989.99
2017-12-13T14:41:27.724Z,989.93
2017-12-13T14:46:23.505Z,990.01
2017-12-13T14:51:20.237Z,989.92
2017-12-13T14:56:15.625Z,989.94
2017-12-13T15:01:12.025Z,990.11
2017-12-13T15:06:07.100Z,989.89
2017-12-13T15:11:02.635Z,989.94
2017-12-13T15:15:58.630Z,989.89
2017-12-13T15:20:54.867Z,989.81
2017-12-13T15:25:50.874Z,989.94
2017-12-13T15:30:47.416Z,989.79
2017-12-13T15:35:43.996Z,989.73
2017-12-13T15:40:39.350Z,989.65
2017-12-13T15:45:36.015Z,989.57
2017-12-13T15:50:31.548Z,989.67
2017-12-13T15:55:28.187Z,989.49
2017-12-13T16:00:23.638Z,989.40
2017-12-13T16:05:19.373Z,989.43
2017-12-13T16:10:14.964Z,989.25
2017-12-13T16:15:11.659Z,989.32
2017-12-13T16:20:07.174Z,989.21
2017-12-13T16:25:02.966Z,989.16
2017-12-13T16:29:59.589Z,989.01
2017-12-13T16:34:55.099Z,988.88
2017-12-13T16:39:50.647Z,988.85
2017-12-13T16:44:47.138Z,988.79
2017-12-13T16:49:42.927Z,988.76
2017-12-13T16:54:38.576Z,988.60
2017-12-13T16:59:34.579Z,988.53
2017-12-13T17:04:30.102Z,988.36
2017-12-13T17:09:25.621Z,988.27
2017-12-13T17:14:23.329Z,988.17
2017-12-13T17:19:18.872Z,988.01
2017-12-13T17:24:14.557Z,987.86
2017-12-13T17:29:10.249Z,987.87
2017-12-13T17:34:06.569Z,987.82
2017-12-13T17:39:02.774Z,987.68
2017-12-13T17:43:58.377Z,987.56
2017-12-13T17:48:54.315Z,987.40
2017-12-13T17:53:50.098Z,987.21
2017-12-13T17:58:46.817Z,986.99
2017-12-13T18:03:43.275Z,986.86
2017-12-13T18:08:38.696Z,986.66
2017-12-13T18:13:34.390Z,986.52
2017-12-13T18:18:30.786Z,986.26
2017-12-13T18:23:26.284Z,986.17
2017-12-13T18:28:24.044Z,986.09
2017-12-13T18:33:19.290Z,985.87
2017-12-13T18:38:15.889Z,985.73
2017-12-13T18:43:11.983Z,985.43
2017-12-13T18:48:07.959Z,985.36
2017-12-13T18:53:03.638Z,985.18
2017-12-13T18:58:00.052Z,985.01
2017-12-13T19:02:55.794Z,984.80
2017-12-13T19:07:51.478Z,984.58
2017-12-13T19:12:48.130Z,984.41
2017-12-13T19:17:43.617Z,984.39
2017-12-13T19:22:40.105Z,984.19
2017-12-13T19:27:36.836Z,983.95
2017-12-13T19:32:32.116Z,983.75
2017-12-13T19:37:28.921Z,983.65
2017-12-13T19:42:24.404Z,983.44
2017-12-13T19:47:20.503Z,983.20
2017-12-13T19:52:18.117Z,982.93
2017-12-13T19:57:13.421Z,982.86
2017-12-13T20:02:09.121Z,982.61
2017-12-13T20:07:04.480Z,982.51
2017-12-13T20:12:00.272Z,982.25
2017-12-13T20:16:56.271Z,982.08
2017-12-13T20:21:52.955Z,981.94
2017-12-13T20:26:48.236Z,981.92
2017-12-13T20:31:44.084Z,981.76
2017-12-13T20:36:40.216Z,981.63
2017-12-13T20:41:35.931Z,981.43
2017-12-13T20:46:31.726Z,981.04
2017-12-13T20:51:28.839Z,980.87
2017-12-13T20:56:24.216Z,980.55
2017-12-13T21:01:19.834Z,980.15
2017-12-13T21:06:15.780Z,979.94
2017-12-13T21:11:12.297Z,979.85
2017-12-13T21:16:07.985Z,979.55
2017-12-13T21:21:04.049Z,979.50
2017-12-13T21:26:00.696Z,979.28
2017-12-13T21:30:57.185Z,979.36
2017-12-13T21:35:52.633Z,979.25
2017-12-13T21:40:50.078Z,979.55
2017-12-13T21:45:46.204Z,979.80
2017-12-13T21:50:41.675Z,979.54
2017-12-13T21:55:37.588Z,979.53
2017-12-13T22:00:33.223Z,979.41
2017-12-13T22:05:28.900Z,979.42
2017-12-13T22:10:25.298Z,979.14
2017-12-13T22:15:20.894Z,979.28
2017-12-13T22:20:16.695Z,979.17
2017-12-13T22:25:13.087Z,978.89
2017-12-13T22:30:08.717Z,978.76
2017-12-13T22:35:04.524Z,978.99
2017-12-13T22:40:00.158Z,978.99
2017-12-13T22:44:56.587Z,979.06
2017-12-13T22:49:52.130Z,979.23
2017-12-13T22:54:48.127Z,979.40
2017-12-13T22:59:43.884Z,979.57
2017-12-13T23:04:40.594Z,979.63
2017-12-13T23:09:35.816Z,979.84
2017-12-13T23:14:31.375Z,979.78
2017-12-13T23:19:27.290Z,979.89
2017-12-13T23:24:23.077Z,980.12
2017-12-13T23:29:19.040Z,980.16
2017-12-13T23:34:14.748Z,980.14
2017-12-13T23:39:11.505Z,980.16
2017-12-13T23:44:08.700Z,980.13
2017-12-13T23:49:04.883Z,980.26
2017-12-13T23:54:00.210Z,980.38
2017-12-13T23:58:55.837Z,980.41
